Time;durP1;ratioP1;P1;durP2;ratioP2;P2;SDS_P1;SDS_P2;PMS_P1;PMS_P2;Temp;Humidity;BMP_temperature;BMP_pressure;BME280_temperature;BME280_humidity;BME280_pressure;Samples;Min_cycle;Max_cycle;Signal;HPM_P1;HPM_P2
2022/05/09 00:00:09;;;;;;;9.02;8.13;;;;;;;13.06;76.56;99697.09;2622982;54;20033;-61
2022/05/09 00:02:42;;;;;;;8.95;8.05;;;;;;;13.06;76.76;99695.28;2622914;54;20054;-61
2022/05/09 00:05:16;;;;;;;9.10;8.20;;;;;;;13.11;76.54;99692.09;2625727;39;20661;-61
2022/05/09 00:07:47;;;;;;;8.68;7.93;;;;;;;13.19;76.22;99697.28;2623814;54;20518;-61
2022/05/09 00:10:19;;;;;;;12.57;8.63;;;;;;;13.22;75.88;99701.38;2623375;54;20042;-64
2022/05/09 00:12:50;;;;;;;9.73;8.73;;;;;;;13.10;76.21;99693.06;2623073;54;20039;-62
2022/05/09 00:15:23;;;;;;;9.95;8.95;;;;;;;13.08;75.95;99697.75;2622772;54;20030;-61
2022/05/09 00:17:52;;;;;;;9.30;8.40;;;;;;;13.11;75.83;99694.72;2622787;54;20038;-61
2022/05/09 00:20:22;;;;;;;9.55;8.35;;;;;;;13.13;75.89;99692.69;2622782;54;20042;-62
2022/05/09 00:22:54;;;;;;;9.75;8.82;;;;;;;13.03;75.45;99693.00;2622344;54;20031;-60
2022/05/09 00:25:26;;;;;;;10.50;9.27;;;;;;;12.99;75.56;99696.22;2622821;54;20034;-61
2022/05/09 00:27:56;;;;;;;10.60;8.98;;;;;;;12.84;75.47;99694.41;2623881;54;20106;-62
2022/05/09 00:30:28;;;;;;;10.48;9.32;;;;;;;12.81;76.04;99681.50;2623178;54;20034;-62
2022/05/09 00:32:58;;;;;;;9.60;8.70;;;;;;;12.79;76.24;99680.88;2623955;54;20018;-63
2022/05/09 00:35:27;;;;;;;9.48;8.55;;;;;;;12.91;76.54;99683.88;2624732;54;20025;-63
2022/05/09 00:37:57;;;;;;;9.32;8.20;;;;;;;12.99;76.32;99683.78;2625180;54;20577;-66
2022/05/09 00:40:27;;;;;;;9.68;8.82;;;;;;;13.00;75.74;99680.09;2625835;39;20434;-64
2022/05/09 00:42:56;;;;;;;9.40;8.25;;;;;;;12.96;75.74;99684.13;2625073;54;20029;-65
2022/05/09 00:45:29;;;;;;;10.23;8.35;;;;;;;12.84;75.25;99680.31;2625436;54;20027;-63
2022/05/09 00:47:58;;;;;;;9.98;9.05;;;;;;;12.71;75.99;99680.16;2625289;54;20526;-63
2022/05/09 00:50:33;;;;;;;8.88;8.07;;;;;;;12.70;76.42;99678.53;2624670;54;20027;-63
2022/05/09 00:53:10;;;;;;;9.88;8.98;;;;;;;12.66;75.83;99682.56;2624704;54;20034;-63
2022/05/09 00:55:44;;;;;;;10.27;9.27;;;;;;;12.63;75.75;99683.72;2624024;54;20041;-61
2022/05/09 00:58:17;;;;;;;12.23;9.18;;;;;;;12.58;76.17;99686.13;2623824;54;20043;-62
2022/05/09 01:00:51;;;;;;;10.70;9.60;;;;;;;12.55;76.60;99682.00;2623282;47;20519;-63
2022/05/09 01:03:24;;;;;;;;;;;;;;;12.49;76.89;99684.56;2623021;54;20022;-62
2022/05/09 01:05:54;;;;;;;8.80;8.00;;;;;;;12.43;76.76;99685.28;2622424;46;19946;-61
2022/05/09 01:08:26;;;;;;;9.02;8.15;;;;;;;12.53;77.26;99686.69;2622187;54;20114;-63
2022/05/09 01:10:57;;;;;;;9.15;8.15;;;;;;;12.64;76.67;99688.03;2623668;39;20438;-62
2022/05/09 01:13:32;;;;;;;9.30;8.40;;;;;;;12.74;76.85;99677.97;2623572;54;20038;-62
2022/05/09 01:16:08;;;;;;;9.20;8.30;;;;;;;12.68;76.24;99689.31;2623338;54;20586;-61
2022/05/09 01:18:39;;;;;;;9.35;8.45;;;;;;;12.71;75.86;99688.94;2623405;54;20075;-63
2022/05/09 01:21:33;;;;;;;9.50;8.60;;;;;;;12.62;76.21;99695.34;2623291;46;20048;-62
2022/05/09 01:24:03;;;;;;;10.77;9.65;;;;;;;12.52;76.19;99698.28;2623407;47;20026;-62
2022/05/09 01:26:33;;;;;;;9.10;8.30;;;;;;;12.49;76.70;99692.50;2623742;54;20041;-61
2022/05/09 01:29:11;;;;;;;8.77;7.97;;;;;;;12.56;77.16;99693.44;2622852;47;20150;-62
2022/05/09 01:31:42;;;;;;;8.82;8.02;;;;;;;12.64;76.69;99693.34;2623525;39;20738;-63
2022/05/09 01:34:15;;;;;;;10.60;8.98;;;;;;;12.63;76.32;99692.50;2623617;54;20033;-63
2022/05/09 01:36:51;;;;;;;9.68;8.77;;;;;;;12.56;76.12;99686.28;2623354;54;20165;-62
2022/05/09 01:39:22;;;;;;;9.63;8.50;;;;;;;12.58;76.52;99689.59;2623599;46;20064;-62
2022/05/09 01:41:54;;;;;;;9.88;8.98;;;;;;;12.55;76.43;99683.84;2623536;54;20029;-63
2022/05/09 01:44:24;;;;;;;9.80;8.82;;;;;;;12.49;76.90;99690.69;2623498;54;20068;-62
2022/05/09 01:49:39;;;;;;;9.70;8.80;;;;;;;12.36;77.06;99685.19;2623746;54;20041;-63
2022/05/09 01:52:14;;;;;;;10.87;9.77;;;;;;;12.38;77.15;99685.84;2624072;54;20030;-62
2022/05/09 01:54:44;;;;;;;10.52;9.40;;;;;;;12.25;76.99;99683.84;2623987;54;20106;-62
2022/05/09 01:57:15;;;;;;;11.77;10.13;;;;;;;12.21;77.35;99690.50;2623702;54;20034;-63
2022/05/09 01:59:46;;;;;;;10.80;9.70;;;;;;;12.21;77.81;99687.84;2623567;54;20026;-62
2022/05/09 02:02:18;;;;;;;10.80;9.50;;;;;;;12.16;77.73;99687.56;2623408;54;20069;-63
2022/05/09 02:04:50;;;;;;;10.60;9.57;;;;;;;12.22;77.41;99689.50;2623548;54;20022;-62
2022/05/09 02:07:23;;;;;;;10.32;9.35;;;;;;;12.22;77.50;99688.66;2623658;54;20046;-63
2022/05/09 02:09:53;;;;;;;10.60;9.60;;;;;;;12.12;77.93;99695.06;2623669;54;20035;-63
2022/05/09 02:12:24;;;;;;;10.05;9.05;;;;;;;12.14;78.08;99692.22;2623285;54;20045;-62
2022/05/09 02:14:54;;;;;;;10.07;9.18;;;;;;;12.24;78.17;99686.66;2622637;47;20023;-62
2022/05/09 02:17:24;;;;;;;10.75;9.65;;;;;;;12.26;77.55;99692.59;2623846;54;20566;-63
2022/05/09 02:19:55;;;;;;;10.35;9.40;;;;;;;12.22;77.34;99694.78;2624145;54;20041;-62
2022/05/09 02:22:29;;;;;;;10.70;8.57;;;;;;;12.09;77.81;99690.13;2622506;47;20049;-62
2022/05/09 02:24:58;;;;;;;11.00;8.95;;;;;;;12.07;77.96;99688.63;2623439;54;20566;-63
2022/05/09 02:27:28;;;;;;;9.93;9.02;;;;;;;12.07;77.41;99686.00;2621641;54;20042;-63
2022/05/09 02:29:58;;;;;;;9.90;8.90;;;;;;;12.03;77.67;99690.00;2620807;47;20027;-63
2022/05/09 02:32:28;;;;;;;9.32;8.52;;;;;;;12.07;77.40;99691.28;2621207;54;20117;-62
2022/05/09 02:34:57;;;;;;;9.82;8.57;;;;;;;12.06;77.53;99692.31;2622470;54;20019;-63
2022/05/09 02:37:30;;;;;;;12.68;10.70;;;;;;;12.05;77.53;99688.00;2622123;54;20039;-64
2022/05/09 02:39:59;;;;;;;21.98;16.30;;;;;;;12.06;77.33;99692.31;2621993;47;20078;-62
2022/05/09 02:42:29;;;;;;;10.05;9.15;;;;;;;12.03;77.12;99692.66;2622798;54;20049;-62
2022/05/09 02:44:59;;;;;;;9.98;9.07;;;;;;;11.96;77.62;99689.91;2622148;54;20042;-61
2022/05/09 02:47:29;;;;;;;10.00;8.98;;;;;;;11.96;77.23;99695.22;2621324;47;20562;-61
2022/05/09 02:49:59;;;;;;;10.90;9.80;;;;;;;12.00;76.92;99693.84;2622168;54;20034;-62
2022/05/09 02:52:32;;;;;;;10.48;9.30;;;;;;;11.93;77.50;99692.09;2622272;54;20565;-62
2022/05/09 02:55:01;;;;;;;10.18;8.73;;;;;;;11.97;76.99;99698.69;2622926;54;20038;-62
2022/05/09 02:57:31;;;;;;;14.38;9.80;;;;;;;11.88;77.50;99693.47;2622743;54;20046;-62
2022/05/09 03:00:01;;;;;;;13.13;9.80;;;;;;;11.82;77.67;99693.31;2622734;54;20038;-62
2022/05/09 03:02:31;;;;;;;10.48;9.48;;;;;;;11.83;77.64;99693.16;2622097;54;20065;-63
2022/05/09 03:04:58;;;;;;;10.50;9.48;;;;;;;11.83;77.13;99690.50;2621112;54;20053;-64
2022/05/09 03:07:28;;;;;;;11.18;10.07;;;;;;;11.73;77.30;99700.50;2619910;54;20046;-62
2022/05/09 03:10:01;;;;;;;11.75;10.52;;;;;;;11.71;77.52;99691.91;2621134;54;20174;-64
2022/05/09 03:12:31;;;;;;;11.10;9.98;;;;;;;11.72;77.39;99695.41;2623128;54;20034;-62
2022/05/09 03:15:01;;;;;;;9.68;8.40;;;;;;;11.62;77.53;99690.31;2623521;54;20034;-62
2022/05/09 03:17:31;;;;;;;10.23;9.07;;;;;;;11.74;77.86;99696.03;2622813;51;20034;-63
2022/05/09 03:20:00;;;;;;;10.88;9.77;;;;;;;11.75;77.33;99687.88;2621612;54;20182;-62
2022/05/09 03:22:31;;;;;;;11.30;10.20;;;;;;;11.69;77.47;99685.97;2620167;39;20426;-62
2022/05/09 03:25:03;;;;;;;14.27;9.23;;;;;;;11.59;77.42;99688.88;2620083;54;20034;-65
2022/05/09 03:27:33;;;;;;;10.70;9.68;;;;;;;11.55;77.26;99684.94;2619309;54;20026;-62
2022/05/09 03:30:02;;;;;;;11.05;9.95;;;;;;;11.53;77.38;99686.09;2620075;54;20659;-62
2022/05/09 03:32:34;;;;;;;10.88;9.88;;;;;;;11.41;77.20;99688.34;2622043;54;20061;-63
2022/05/09 03:35:03;;;;;;;13.25;10.57;;;;;;;11.21;77.81;99695.91;2619641;54;20022;-62
2022/05/09 03:37:33;;;;;;;10.80;9.70;;;;;;;11.15;78.13;99699.25;2619741;54;20030;-63
2022/05/09 03:40:06;;;;;;;9.65;8.70;;;;;;;11.26;78.67;99693.53;2620569;54;20041;-63
2022/05/09 03:42:36;;;;;;;12.77;9.45;;;;;;;11.37;78.31;99698.44;2619684;47;20521;-62
2022/05/09 03:45:08;;;;;;;11.20;9.30;;;;;;;11.53;77.93;99697.50;2621228;39;20423;-63
2022/05/09 03:47:37;;;;;;;11.25;10.07;;;;;;;11.56;76.94;99701.66;2622316;54;20057;-63
2022/05/09 03:50:11;;;;;;;10.65;9.57;;;;;;;11.34;76.75;99706.72;2622691;54;20041;-63
2022/05/09 03:52:46;;;;;;;10.02;9.13;;;;;;;11.27;77.62;99708.44;2622687;54;20027;-62
2022/05/09 03:55:18;;;;;;;11.00;9.80;;;;;;;11.31;77.63;99696.50;2618835;54;20027;-62
2022/05/09 03:57:50;;;;;;;11.45;10.25;;;;;;;11.42;77.61;99703.22;2619226;47;20571;-63
2022/05/09 04:00:22;;;;;;;10.68;9.68;;;;;;;11.47;77.12;99711.47;2621698;39;20410;-64
2022/05/09 04:02:52;;;;;;;21.25;15.82;;;;;;;11.47;76.55;99705.31;2623185;54;20053;-63
2022/05/09 04:05:22;;;;;;;25.95;20.25;;;;;;;11.33;76.62;99709.56;2623237;54;20034;-63
2022/05/09 04:07:54;;;;;;;13.35;12.05;;;;;;;11.40;76.81;99703.41;2621849;54;20033;-63
2022/05/09 04:10:28;;;;;;;11.45;9.73;;;;;;;11.50;76.63;99707.63;2623465;54;20038;-62
2022/05/09 04:12:57;;;;;;;;;;;;;;;11.58;77.08;99704.91;2623776;54;20042;-62
2022/05/09 04:18:10;;;;;;;11.82;9.70;;;;;;;11.70;76.39;99714.09;2618072;54;20034;-66
2022/05/09 04:20:41;;;;;;;12.25;9.35;;;;;;;11.65;76.09;99709.34;2618877;39;20418;-66
2022/05/09 04:23:10;;;;;;;11.10;9.20;;;;;;;11.54;76.10;99712.38;2618592;54;20059;-68
2022/05/09 04:25:43;;;;;;;11.40;10.13;;;;;;;11.57;75.84;99719.16;2617893;47;20034;-66
2022/05/09 04:28:18;;;;;;;11.73;9.68;;;;;;;11.50;75.70;99718.22;2618724;54;20057;-66
2022/05/09 04:30:53;;;;;;;11.20;10.10;;;;;;;11.44;75.84;99718.94;2618492;54;20145;-66
2022/05/09 04:33:30;;;;;;;11.63;10.02;;;;;;;11.39;76.48;99727.41;2618589;39;20559;-66
2022/05/09 04:36:00;;;;;;;10.07;9.02;;;;;;;11.45;76.34;99717.94;2617930;47;20030;-67
2022/05/09 04:38:30;;;;;;;10.68;9.55;;;;;;;11.58;76.91;99708.38;2617990;54;20027;-66
2022/05/09 04:41:03;;;;;;;12.65;9.27;;;;;;;11.70;76.07;99713.28;2618284;54;20038;-66
2022/05/09 04:43:33;;;;;;;12.85;10.38;;;;;;;11.71;75.77;99718.38;2618899;39;20430;-66
2022/05/09 04:46:04;;;;;;;12.40;10.00;;;;;;;11.64;75.13;99720.13;2617815;47;20069;-66
2022/05/09 04:48:34;;;;;;;13.25;11.23;;;;;;;11.57;75.25;99727.94;2618013;54;20081;-66
2022/05/09 04:51:04;;;;;;;13.23;11.68;;;;;;;11.51;75.38;99719.84;2618498;54;20122;-65
2022/05/09 04:53:33;;;;;;;10.57;9.52;;;;;;;11.52;75.37;99725.00;2618335;54;20035;-65
2022/05/09 04:56:11;;;;;;;11.50;10.32;;;;;;;11.53;75.40;99725.81;2618250;54;20038;-67
2022/05/09 04:58:40;;;;;;;11.27;9.30;;;;;;;11.56;75.03;99728.13;2617555;47;20034;-65
2022/05/09 05:01:10;;;;;;;9.73;8.52;;;;;;;11.64;75.65;99731.53;2618259;54;20545;-65
2022/05/09 05:03:40;;;;;;;13.20;10.40;;;;;;;11.78;75.22;99729.94;2617293;47;20022;-65
2022/05/09 05:06:10;;;;;;;9.93;8.95;;;;;;;11.84;75.30;99726.63;2617603;54;20033;-65
2022/05/09 05:08:40;;;;;;;8.98;8.10;;;;;;;11.95;75.14;99735.13;2618071;54;20027;-65
2022/05/09 05:11:12;;;;;;;11.30;10.15;;;;;;;12.07;74.62;99729.22;2618251;46;20046;-65
2022/05/09 05:13:42;;;;;;;9.30;8.38;;;;;;;11.98;74.14;99726.81;2618595;39;20441;-65
2022/05/09 05:16:12;;;;;;;11.57;9.27;;;;;;;12.09;74.64;99727.22;2618504;54;20161;-66
2022/05/09 05:18:43;;;;;;;12.65;9.90;;;;;;;12.19;73.78;99729.59;2617758;54;20043;-66
2022/05/09 05:21:15;;;;;;;11.85;9.40;;;;;;;12.22;73.55;99733.72;2617648;47;20034;-66
2022/05/09 05:23:44;;;;;;;11.15;8.50;;;;;;;12.25;73.77;99734.19;2618625;54;20037;-65
2022/05/09 05:26:17;;;;;;;11.73;9.43;;;;;;;12.43;74.31;99746.28;2618142;54;20031;-65
2022/05/09 05:28:46;;;;;;;9.32;8.43;;;;;;;12.52;73.82;99742.53;2617898;54;20030;-65
2022/05/09 05:31:18;;;;;;;11.23;7.93;;;;;;;12.64;73.83;99743.72;2618141;39;20442;-66
2022/05/09 05:33:49;;;;;;;10.18;9.18;;;;;;;12.71;73.26;99744.66;2617254;54;20022;-65
2022/05/09 05:36:21;;;;;;;9.75;8.75;;;;;;;12.83;73.16;99750.31;2618533;54;20034;-66
2022/05/09 05:38:51;;;;;;;12.57;10.38;;;;;;;12.82;72.79;99748.69;2617967;54;20037;-66
2022/05/09 05:41:25;;;;;;;10.07;9.00;;;;;;;12.84;73.20;99746.66;2618073;54;20065;-65
2022/05/09 05:43:55;;;;;;;12.52;10.63;;;;;;;12.86;72.74;99750.78;2618078;54;20034;-65
2022/05/09 05:46:25;;;;;;;16.00;10.80;;;;;;;12.87;73.27;99751.59;2618110;54;20034;-66
2022/05/09 05:48:55;;;;;;;10.68;9.35;;;;;;;12.98;73.48;99756.44;2617827;54;20074;-65
2022/05/09 05:51:26;;;;;;;13.75;9.80;;;;;;;13.18;72.85;99756.66;2617681;47;20031;-66
2022/05/09 05:53:58;;;;;;;14.15;10.75;;;;;;;13.25;72.29;99754.13;2617945;54;20022;-66
2022/05/09 05:56:30;;;;;;;14.80;9.40;;;;;;;13.27;71.83;99763.56;2618062;54;20030;-66
2022/05/09 05:59:00;;;;;;;16.05;10.52;;;;;;;13.34;72.26;99759.13;2618274;39;20463;-66
2022/05/09 06:01:29;;;;;;;13.27;11.00;;;;;;;13.48;71.67;99760.13;2618197;54;20031;-66
2022/05/09 06:03:59;;;;;;;11.02;9.93;;;;;;;13.59;71.68;99759.63;2617855;54;20022;-66
2022/05/09 06:06:29;;;;;;;13.23;10.20;;;;;;;13.73;70.72;99763.25;2617204;54;20034;-66
2022/05/09 06:08:58;;;;;;;11.85;9.35;;;;;;;13.77;70.57;99759.19;2617330;47;20062;-66
2022/05/09 06:11:31;;;;;;;13.98;11.35;;;;;;;13.89;70.41;99764.81;2617952;54;20034;-66
2022/05/09 06:14:03;;;;;;;15.43;11.30;;;;;;;13.94;69.55;99761.59;2618479;39;20721;-66
2022/05/09 06:16:33;;;;;;;11.57;10.35;;;;;;;13.98;69.61;99771.66;2617962;54;20042;-66
2022/05/09 06:19:04;;;;;;;13.23;11.00;;;;;;;14.05;69.45;99763.75;2618002;54;20046;-66
2022/05/09 06:21:34;;;;;;;11.30;10.10;;;;;;;14.04;69.07;99762.94;2618205;54;20031;-66
2022/05/09 06:24:05;;;;;;;12.20;9.90;;;;;;;13.99;69.04;99764.50;2617320;54;20054;-66
2022/05/09 06:26:40;;;;;;;14.23;10.07;;;;;;;14.08;69.74;99760.69;2619925;46;20042;-66
2022/05/09 06:29:09;;;;;;;11.40;9.35;;;;;;;14.22;69.50;99759.78;2624946;54;20034;-66
2022/05/09 06:31:40;;;;;;;11.93;9.60;;;;;;;14.33;68.62;99767.25;2624382;54;20031;-66
2022/05/09 06:34:13;;;;;;;12.90;11.02;;;;;;;14.39;68.49;99762.97;2620510;47;20042;-66
2022/05/09 06:36:44;;;;;;;10.80;9.77;;;;;;;14.34;68.87;99770.72;2618039;54;20026;-66
2022/05/09 06:39:14;;;;;;;16.30;11.43;;;;;;;14.42;68.21;99767.91;2617334;47;20038;-67
2022/05/09 06:41:47;;;;;;;12.50;9.77;;;;;;;14.43;68.72;99763.41;2618082;54;20059;-65
2022/05/09 06:44:17;;;;;;;9.97;8.63;;;;;;;14.54;68.66;99762.91;2618267;54;20508;-66
2022/05/09 06:46:46;;;;;;;13.85;11.20;;;;;;;14.66;68.29;99764.03;2618208;54;20034;-65
2022/05/09 06:49:16;;;;;;;16.17;10.55;;;;;;;14.65;68.54;99770.34;2618125;54;20038;-67
2022/05/09 06:51:46;;;;;;;11.57;10.10;;;;;;;14.69;68.35;99768.09;2617537;54;20061;-67
2022/05/09 06:54:18;;;;;;;14.02;11.25;;;;;;;14.72;67.96;99767.72;2617647;47;20030;-68
2022/05/09 06:56:51;;;;;;;11.88;9.45;;;;;;;14.74;68.49;99763.88;2617992;54;20045;-68
2022/05/09 06:59:20;;;;;;;13.82;9.57;;;;;;;14.77;68.61;99762.63;2617903;54;20122;-68
2022/05/09 07:01:51;;;;;;;14.20;10.90;;;;;;;14.98;68.42;99767.03;2618417;39;20431;-67
2022/05/09 07:04:21;;;;;;;14.75;10.18;;;;;;;15.10;67.90;99758.31;2617729;54;20126;-68
2022/05/09 07:06:51;;;;;;;13.15;10.43;;;;;;;15.23;67.31;99760.19;2617236;54;20562;-67
2022/05/09 07:09:21;;;;;;;10.68;9.40;;;;;;;15.31;67.57;99752.03;2617379;51;20057;-67
2022/05/09 07:11:54;;;;;;;11.90;9.65;;;;;;;15.44;67.50;99753.91;2618054;54;20034;-67
2022/05/09 07:14:25;;;;;;;10.95;9.07;;;;;;;15.62;67.01;99748.00;2617374;47;20045;-67
2022/05/09 07:16:54;;;;;;;14.80;10.20;;;;;;;15.74;66.55;99759.75;2617214;54;20038;-68
2022/05/09 07:19:24;;;;;;;11.13;9.00;;;;;;;15.80;66.26;99753.59;2617607;54;20026;-68
2022/05/09 07:21:54;;;;;;;13.35;10.82;;;;;;;15.92;66.17;99756.50;2617968;54;20554;-67
2022/05/09 07:24:23;;;;;;;12.90;8.50;;;;;;;16.06;65.72;99759.97;2617190;47;20570;-68
2022/05/09 07:26:56;;;;;;;10.73;8.73;;;;;;;16.19;65.62;99754.63;2617595;54;20061;-67
2022/05/09 07:29:25;;;;;;;15.48;9.85;;;;;;;16.20;65.51;99752.78;2617789;54;20030;-66
2022/05/09 07:31:56;;;;;;;11.18;9.07;;;;;;;16.31;65.37;99753.00;2617992;54;20592;-66
2022/05/09 07:34:25;;;;;;;10.35;9.00;;;;;;;16.43;64.47;99758.53;2617872;54;20081;-68
2022/05/09 07:36:55;;;;;;;12.57;8.35;;;;;;;16.49;64.23;99759.53;2617463;54;20038;-67
2022/05/09 07:39:25;;;;;;;10.10;8.60;;;;;;;16.63;63.83;99755.00;2617610;54;20026;-66
2022/05/09 07:42:03;;;;;;;9.27;7.82;;;;;;;16.77;63.24;99760.13;2617208;54;20102;-66
2022/05/09 07:44:32;;;;;;;8.70;7.63;;;;;;;16.81;62.79;99757.84;2617159;54;20078;-65
2022/05/09 07:47:02;;;;;;;11.55;8.05;;;;;;;16.94;62.88;99759.66;2616752;54;20049;-65
2022/05/09 07:49:32;;;;;;;13.60;8.00;;;;;;;17.01;62.73;99753.28;2617637;54;20158;-67
2022/05/09 07:52:02;;;;;;;8.82;7.93;;;;;;;17.11;62.31;99758.19;2616947;47;20035;-67
2022/05/09 07:54:32;;;;;;;9.60;7.88;;;;;;;17.19;61.34;99755.28;2617547;54;20046;-66
2022/05/09 07:57:05;;;;;;;10.77;7.40;;;;;;;17.23;61.48;99759.16;2616852;47;20061;-65
2022/05/09 07:59:35;;;;;;;9.52;7.50;;;;;;;17.28;61.80;99763.88;2617204;54;20033;-66
2022/05/09 08:02:04;;;;;;;8.43;7.00;;;;;;;17.40;60.93;99758.66;2617801;54;20045;-66
2022/05/09 08:04:35;;;;;;;12.65;7.90;;;;;;;17.53;60.67;99763.94;2617546;54;20582;-66
2022/05/09 08:07:04;;;;;;;9.02;7.40;;;;;;;17.60;60.69;99761.25;2616991;54;20045;-66
2022/05/09 08:09:34;;;;;;;11.23;8.23;;;;;;;17.69;60.08;99757.25;2617179;47;20044;-67
2022/05/09 08:12:08;;;;;;;9.68;8.25;;;;;;;17.79;59.91;99755.78;2617064;54;20816;-66
2022/05/09 08:14:37;;;;;;;;;;;;;;;17.83;60.15;99761.50;2617758;54;20030;-66
2022/05/09 08:17:09;;;;;;;7.97;7.10;;;;;;;17.79;60.49;99760.31;2616896;54;19945;-67
2022/05/09 08:19:40;;;;;;;11.27;8.05;;;;;;;17.81;60.00;99758.25;2619448;54;20051;-67
2022/05/09 08:22:10;;;;;;;8.38;6.90;;;;;;;18.10;59.18;99758.66;2621195;54;20864;-67
2022/05/09 08:24:46;;;;;;;8.40;7.43;;;;;;;18.19;57.95;99762.69;2622143;54;20081;-66
2022/05/09 08:27:19;;;;;;;10.05;7.85;;;;;;;18.12;58.12;99761.91;2622579;54;20030;-66
2022/05/09 08:29:51;;;;;;;8.18;6.63;;;;;;;18.02;58.61;99755.19;2622286;39;20536;-66
2022/05/09 08:32:21;;;;;;;7.80;6.88;;;;;;;18.18;58.18;99764.53;2622641;54;20031;-67
2022/05/09 08:34:51;;;;;;;10.50;7.57;;;;;;;18.23;58.19;99761.22;2622095;47;20083;-67
2022/05/09 08:37:24;;;;;;;7.90;7.20;;;;;;;18.20;58.29;99756.28;2622503;54;20029;-66
2022/05/09 08:39:54;;;;;;;7.80;6.40;;;;;;;18.23;58.70;99759.34;2622399;54;20031;-66
2022/05/09 08:42:37;;;;;;;7.75;7.05;;;;;;;18.43;58.25;99756.50;2622692;54;20124;-67
2022/05/09 08:45:27;;;;;;;8.07;7.28;;;;;;;18.59;56.63;99765.00;2622856;54;20045;-67
2022/05/09 08:48:16;;;;;;;8.32;6.28;;;;;;;18.57;57.59;99754.50;2623456;54;20556;-66
2022/05/09 08:50:57;;;;;;;10.57;6.90;;;;;;;18.53;56.92;99761.34;2622890;54;20050;-65
2022/05/09 08:53:29;;;;;;;8.43;7.15;;;;;;;18.49;57.14;99762.81;2618570;54;20030;-64
2022/05/09 08:55:59;;;;;;;8.45;6.25;;;;;;;18.55;56.86;99754.72;2618367;54;20030;-65
2022/05/09 08:58:42;;;;;;;7.30;6.50;;;;;;;18.79;57.13;99755.75;2618063;54;20034;-65
2022/05/09 09:01:17;;;;;;;7.88;6.13;;;;;;;18.90;55.76;99745.31;2618291;54;20046;-65
2022/05/09 09:03:57;;;;;;;7.43;6.60;;;;;;;19.13;54.67;99747.31;2618053;54;20014;-68
2022/05/09 09:06:57;;;;;;;8.40;5.95;;;;;;;19.28;54.52;99750.44;2618228;54;20035;-68
2022/05/09 09:09:40;;;;;;;8.40;6.38;;;;;;;19.38;53.80;99748.00;2618196;54;20037;-68
2022/05/09 09:12:18;;;;;;;7.43;5.88;;;;;;;19.48;53.85;99742.94;2618827;54;20539;-68
2022/05/09 09:15:04;;;;;;;8.95;5.82;;;;;;;19.49;53.71;99733.03;2618612;54;20840;-68
2022/05/09 09:17:56;;;;;;;10.48;6.93;;;;;;;19.44;53.40;99739.09;2617648;54;20043;-68
2022/05/09 09:20:31;;;;;;;6.88;6.00;;;;;;;19.40;52.89;99737.91;2618304;54;20089;-67
2022/05/09 09:23:14;;;;;;;9.48;6.65;;;;;;;19.62;52.93;99732.06;2617678;54;20030;-66
2022/05/09 09:26:00;;;;;;;6.85;5.30;;;;;;;19.66;52.90;99728.69;2619116;31;20488;-68
2022/05/09 09:28:44;;;;;;;8.77;6.28;;;;;;;19.81;51.81;99740.84;2617412;54;20040;-67
2022/05/09 09:31:19;;;;;;;5.90;5.35;;;;;;;19.84;51.85;99737.69;2618192;54;20027;-68
2022/05/09 09:33:54;;;;;;;8.40;5.68;;;;;;;19.86;51.17;99744.47;2617970;54;20034;-68
2022/05/09 09:36:27;;;;;;;7.93;5.60;;;;;;;19.84;51.78;99741.22;2618136;54;20029;-67
2022/05/09 09:39:00;;;;;;;;;;;;;;;20.03;51.67;99739.25;2617942;39;20454;-67
2022/05/09 09:41:32;;;;;;;10.80;6.15;;;;;;;20.15;51.19;99739.25;2617605;54;19942;-67
2022/05/09 09:44:09;;;;;;;8.13;5.82;;;;;;;20.18;50.65;99730.75;2618247;54;20039;-66
2022/05/09 09:47:06;;;;;;;8.32;6.00;;;;;;;20.14;50.24;99727.72;2618800;39;20411;-67
2022/05/09 09:49:38;;;;;;;6.07;5.38;;;;;;;20.07;50.91;99727.00;2617918;54;20026;-68
2022/05/09 09:52:24;;;;;;;6.60;5.03;;;;;;;20.12;50.06;99727.13;2620294;54;20031;-66
2022/05/09 09:54:58;;;;;;;6.65;5.65;;;;;;;20.31;49.92;99719.78;2623296;54;20046;-67
2022/05/09 09:57:32;;;;;;;6.60;5.65;;;;;;;20.62;49.12;99718.63;2624484;54;20031;-66
2022/05/09 10:00:17;;;;;;;6.13;5.45;;;;;;;20.68;49.11;99714.16;2625784;54;20043;-66
2022/05/09 10:02:53;;;;;;;7.70;5.60;;;;;;;20.70;49.44;99717.44;2624926;54;20522;-69
2022/05/09 10:05:34;;;;;;;7.75;5.63;;;;;;;20.78;49.65;99715.22;2623767;54;20511;-67
2022/05/09 10:08:20;;;;;;;6.00;4.97;;;;;;;20.86;49.24;99721.25;2623218;54;20045;-67
2022/05/09 10:11:05;;;;;;;7.60;6.00;;;;;;;21.04;48.18;99723.78;2620512;54;20080;-66
2022/05/09 10:13:45;;;;;;;8.27;5.25;;;;;;;21.02;48.62;99715.97;2620534;54;20038;-67
2022/05/09 10:16:24;;;;;;;7.82;5.15;;;;;;;20.97;48.37;99713.16;2618795;54;20031;-64
2022/05/09 10:18:57;;;;;;;5.47;3.92;;;;;;;21.10;48.34;99705.88;2618225;54;20034;-64
2022/05/09 10:27:11;;;;;;;6.82;5.00;;;;;;;21.37;47.26;99703.47;2620417;54;20038;-67
2022/05/09 10:29:43;;;;;;;7.72;5.63;;;;;;;21.48;46.38;99699.91;2621137;54;20066;-63
2022/05/09 10:32:15;;;;;;;5.35;4.82;;;;;;;21.42;46.58;99690.09;2624355;54;20031;-64
2022/05/09 10:34:57;;;;;;;8.05;5.30;;;;;;;21.56;46.99;99691.44;2622554;54;20034;-65
2022/05/09 10:37:40;;;;;;;7.10;5.78;;;;;;;21.63;45.94;99691.25;2620199;54;20034;-62
2022/05/09 10:40:14;;;;;;;;;;;;;;;21.52;45.94;99690.28;2620276;54;20041;-64
2022/05/09 10:42:48;;;;;;;6.38;5.18;;;;;;;21.48;46.83;99687.28;2619969;54;19943;-63
2022/05/09 10:45:21;;;;;;;6.53;4.25;;;;;;;21.60;47.10;99679.13;2621167;54;20030;-64
2022/05/09 10:47:57;;;;;;;7.13;5.10;;;;;;;21.48;46.33;99670.31;2620398;54;20042;-64
2022/05/09 10:50:35;;;;;;;8.55;4.45;;;;;;;21.32;46.40;99671.06;2620679;54;20034;-63
2022/05/09 10:53:14;;;;;;;8.38;5.47;;;;;;;21.37;46.56;99673.88;2620768;54;20030;-64
2022/05/09 10:55:48;;;;;;;5.65;5.00;;;;;;;21.23;46.12;99676.03;2620872;54;20034;-64
2022/05/09 10:58:26;;;;;;;7.43;5.45;;;;;;;21.27;46.48;99667.25;2619820;54;20033;-64
2022/05/09 11:01:00;;;;;;;8.30;5.20;;;;;;;21.40;46.69;99657.28;2618052;54;20034;-64
2022/05/09 11:03:34;;;;;;;5.80;5.10;;;;;;;21.49;46.05;99656.63;2618249;54;20538;-63
2022/05/09 11:06:42;;;;;;;7.22;4.50;;;;;;;21.57;45.69;99654.59;2618278;46;20018;-61
2022/05/09 11:09:32;;;;;;;5.85;5.18;;;;;;;21.54;44.92;99647.81;2618447;54;20118;-61
2022/05/09 11:12:28;;;;;;;7.00;5.05;;;;;;;21.74;44.46;99645.44;2618465;54;20031;-62
2022/05/09 11:15:11;;;;;;;6.68;4.70;;;;;;;21.91;44.68;99650.81;2618713;54;20034;-63
2022/05/09 11:18:08;;;;;;;6.10;5.32;;;;;;;22.10;44.64;99648.69;2618505;54;20027;-63
2022/05/09 11:20:48;;;;;;;7.00;4.45;;;;;;;22.18;44.02;99631.31;2618752;54;20068;-64
2022/05/09 11:23:32;;;;;;;5.75;5.20;;;;;;;22.41;44.29;99635.66;2618951;54;20034;-64
2022/05/09 11:26:12;;;;;;;6.63;4.80;;;;;;;22.70;43.44;99631.72;2618087;54;20038;-63
2022/05/09 11:29:04;;;;;;;6.30;4.55;;;;;;;22.90;42.44;99636.56;2618805;39;20438;-64
2022/05/09 11:31:49;;;;;;;8.55;5.15;;;;;;;23.01;41.60;99625.88;2618530;54;20039;-66
2022/05/09 11:34:30;;;;;;;6.38;4.15;;;;;;;22.99;40.78;99626.16;2617923;47;20126;-64
2022/05/09 11:37:19;;;;;;;6.07;4.57;;;;;;;23.02;41.05;99622.91;2618282;54;20038;-64
2022/05/09 11:39:58;;;;;;;6.88;4.45;;;;;;;23.08;40.31;99613.81;2618673;54;20037;-64
2022/05/09 11:45:45;;;;;;;4.40;3.80;;;;;;;23.16;40.15;99605.28;2618666;54;20039;-62
2022/05/09 11:48:26;;;;;;;6.15;4.88;;;;;;;23.24;40.31;99606.69;2618639;54;20035;-65
2022/05/09 11:51:06;;;;;;;6.32;4.25;;;;;;;23.34;38.86;99603.25;2618688;54;20034;-62
2022/05/09 11:53:44;;;;;;;7.43;5.10;;;;;;;23.38;38.46;99605.19;2618949;54;20035;-63
2022/05/09 11:56:14;;;;;;;5.40;4.63;;;;;;;23.20;37.70;99600.19;2618240;54;20027;-64
2022/05/09 11:58:47;;;;;;;5.20;4.32;;;;;;;23.03;37.20;99594.91;2618882;31;20507;-64
2022/05/09 12:01:17;;;;;;;7.80;4.32;;;;;;;23.21;36.38;99602.63;2618395;54;20531;-64
2022/05/09 12:03:55;;;;;;;4.82;3.72;;;;;;;23.28;35.91;99599.72;2617619;47;20049;-64
2022/05/09 12:06:40;;;;;;;4.40;3.70;;;;;;;23.32;36.33;99600.84;2619015;39;20438;-64
2022/05/09 12:09:15;;;;;;;4.93;4.15;;;;;;;23.57;35.49;99592.13;2618171;54;20057;-65
2022/05/09 12:11:54;;;;;;;5.78;4.07;;;;;;;23.65;34.67;99596.22;2618730;54;20093;-62